EXS29PL EGGW-GCRR
Flight info
| Callsign | EXS29PL |
|---|---|
| Flight time | N/A |
| Altitude | 32999 |
| Route | RODNI1C RODNI N27 ICTAM Q63 CPT Y321 PEPIS Q41 SAM M195 LORKU DCT BALDA DCT ABUPI DCT DIGAL DCT TAKAV/N0456F350 DCT VEDOD UN857 TERTO TERTO1P |
| Aircraft | A321/M-V/N |
Departure
| Time | 2026-04-29 14:57 |
|---|---|
| Airport | London Luton Airport (EGGW) |
Arrival
| Time | N/A |
|---|---|
| Airport | César Manrique-Lanzarote Airport (GCRR) |
| Time | Latitude | Longitude | Altitude | Speed | Heading |
|---|---|---|---|---|---|
| 2026-04-29 14:37 | 51.88167 | -0.37373 | 520 ft | 0 kts | 161° |
| 2026-04-29 14:42 | 51.88167 | -0.37374 | 520 ft | 2 kts | 161° |
| 2026-04-29 14:42 | 51.88185 | -0.37383 | 520 ft | 3 kts | 161° |
| 2026-04-29 14:42 | 51.88202 | -0.37396 | 519 ft | 3 kts | 138° |
| 2026-04-29 14:43 | 51.88213 | -0.37420 | 519 ft | 3 kts | 101° |
| 2026-04-29 14:43 | 51.88214 | -0.37428 | 519 ft | 0 kts | 83° |
| 2026-04-29 14:46 | 51.88214 | -0.37427 | 519 ft | 1 kts | 83° |
| 2026-04-29 14:46 | 51.88221 | -0.37372 | 519 ft | 8 kts | 74° |
| 2026-04-29 14:46 | 51.88232 | -0.37293 | 520 ft | 6 kts | 99° |
| 2026-04-29 14:46 | 51.88207 | -0.37238 | 520 ft | 6 kts | 143° |
| 2026-04-29 14:47 | 51.88142 | -0.37198 | 516 ft | 19 kts | 162° |
| 2026-04-29 14:47 | 51.87990 | -0.37118 | 511 ft | 23 kts | 162° |
| 2026-04-29 14:47 | 51.87842 | -0.37039 | 515 ft | 21 kts | 161° |
| 2026-04-29 14:47 | 51.87725 | -0.36976 | 523 ft | 15 kts | 162° |
| 2026-04-29 14:48 | 51.87646 | -0.36964 | 527 ft | 10 kts | 212° |
| 2026-04-29 14:48 | 51.87612 | -0.37071 | 525 ft | 11 kts | 255° |
| 2026-04-29 14:48 | 51.87589 | -0.37206 | 525 ft | 12 kts | 255° |
| 2026-04-29 14:48 | 51.87579 | -0.37341 | 525 ft | 12 kts | 279° |
| 2026-04-29 14:49 | 51.87563 | -0.37444 | 525 ft | 11 kts | 220° |
| 2026-04-29 14:49 | 51.87505 | -0.37535 | 525 ft | 11 kts | 246° |
| 2026-04-29 14:49 | 51.87486 | -0.37641 | 526 ft | 9 kts | 254° |
| 2026-04-29 14:49 | 51.87465 | -0.37762 | 526 ft | 14 kts | 254° |
| 2026-04-29 14:50 | 51.87451 | -0.37843 | 525 ft | 3 kts | 255° |
| 2026-04-29 14:50 | 51.87446 | -0.37872 | 526 ft | 2 kts | 254° |
| 2026-04-29 14:50 | 51.87438 | -0.37919 | 526 ft | 5 kts | 254° |
| 2026-04-29 14:50 | 51.87427 | -0.37982 | 527 ft | 6 kts | 249° |
| 2026-04-29 14:51 | 51.87424 | -0.37990 | 527 ft | 0 kts | 243° |
| 2026-04-29 14:51 | 51.87417 | -0.38008 | 527 ft | 0 kts | 236° |
| 2026-04-29 14:52 | 51.87404 | -0.38033 | 527 ft | 7 kts | 219° |
| 2026-04-29 14:52 | 51.87372 | -0.38064 | 526 ft | 0 kts | 206° |
| 2026-04-29 14:53 | 51.87360 | -0.38073 | 526 ft | 9 kts | 206° |
| 2026-04-29 14:54 | 51.87295 | -0.38111 | 525 ft | 10 kts | 182° |
| 2026-04-29 14:54 | 51.87242 | -0.38147 | 526 ft | 8 kts | 232° |
| 2026-04-29 14:54 | 51.87227 | -0.38229 | 525 ft | 8 kts | 272° |
| 2026-04-29 14:54 | 51.87229 | -0.38311 | 524 ft | 0 kts | 245° |
| 2026-04-29 14:55 | 51.87219 | -0.38315 | 524 ft | 1 kts | 164° |
| 2026-04-29 14:55 | 51.87215 | -0.38295 | 524 ft | 2 kts | 97° |
| 2026-04-29 14:55 | 51.87219 | -0.38253 | 525 ft | 3 kts | 75° |
| 2026-04-29 14:55 | 51.87219 | -0.38252 | 525 ft | 0 kts | 75° |
| 2026-04-29 14:56 | 51.87225 | -0.38216 | 526 ft | 21 kts | 75° |
| 2026-04-29 14:56 | 51.87331 | -0.37610 | 524 ft | 90 kts | 74° |
| 2026-04-29 14:56 | 51.87557 | -0.36301 | 525 ft | 157 kts | 74° |
| 2026-04-29 14:56 | 51.87893 | -0.34396 | 807 ft | 182 kts | 74° |
| 2026-04-29 14:57 | 51.88266 | -0.32293 | 1211 ft | 205 kts | 74° |
| 2026-04-29 14:57 | 51.88652 | -0.30025 | 1771 ft | 217 kts | 75° |
| 2026-04-29 14:57 | 51.89041 | -0.27569 | 2311 ft | 231 kts | 79° |
| 2026-04-29 14:57 | 51.89024 | -0.24899 | 2605 ft | 252 kts | 106° |
| 2026-04-29 14:58 | 51.88109 | -0.22464 | 3140 ft | 261 kts | 139° |
| 2026-04-29 14:58 | 51.86478 | -0.21171 | 3554 ft | 261 kts | 173° |
| 2026-04-29 14:58 | 51.84703 | -0.21573 | 3770 ft | 259 kts | 207° |
| 2026-04-29 14:58 | 51.83380 | -0.23461 | 4106 ft | 264 kts | 240° |
| 2026-04-29 14:59 | 51.82785 | -0.26309 | 4949 ft | 265 kts | 259° |
| 2026-04-29 14:59 | 51.82501 | -0.29213 | 5838 ft | 267 kts | 262° |
| 2026-04-29 14:59 | 51.82250 | -0.32201 | 6662 ft | 270 kts | 262° |
| 2026-04-29 14:59 | 51.81989 | -0.35239 | 7415 ft | 273 kts | 262° |
| 2026-04-29 15:00 | 51.81717 | -0.38297 | 8184 ft | 277 kts | 262° |
| 2026-04-29 15:00 | 51.81434 | -0.41408 | 8949 ft | 280 kts | 262° |
| 2026-04-29 15:00 | 51.81105 | -0.44531 | 9689 ft | 283 kts | 258° |
| 2026-04-29 15:00 | 51.80675 | -0.47656 | 10382 ft | 289 kts | 257° |
| 2026-04-29 15:01 | 51.80201 | -0.50877 | 10713 ft | 308 kts | 256° |
| 2026-04-29 15:01 | 51.79687 | -0.54327 | 10987 ft | 328 kts | 256° |
| 2026-04-29 15:01 | 51.79126 | -0.58080 | 11267 ft | 347 kts | 256° |
| 2026-04-29 15:01 | 51.78545 | -0.61957 | 11677 ft | 360 kts | 256° |
| 2026-04-29 15:02 | 51.77951 | -0.65919 | 12298 ft | 365 kts | 256° |
| 2026-04-29 15:02 | 51.77350 | -0.69919 | 12973 ft | 370 kts | 256° |
| 2026-04-29 15:02 | 51.76737 | -0.73984 | 13642 ft | 373 kts | 256° |
| 2026-04-29 15:02 | 51.75921 | -0.77941 | 14293 ft | 377 kts | 244° |
| 2026-04-29 15:03 | 51.74460 | -0.81464 | 14912 ft | 381 kts | 229° |
| 2026-04-29 15:03 | 51.72644 | -0.84559 | 15528 ft | 385 kts | 225° |
| 2026-04-29 15:03 | 51.70722 | -0.87643 | 16144 ft | 388 kts | 225° |
| 2026-04-29 15:03 | 51.68795 | -0.90706 | 16735 ft | 392 kts | 225° |
| 2026-04-29 15:04 | 51.66838 | -0.93810 | 17286 ft | 395 kts | 225° |
| 2026-04-29 15:04 | 51.64869 | -0.96940 | 17840 ft | 398 kts | 225° |
| 2026-04-29 15:04 | 51.62929 | -1.00029 | 18357 ft | 402 kts | 225° |